Terminal Aerodrome Forecast
Issued by NWS Bismarck, ND

Home | Current Version | Previous Version | Graphics & Text | Print | Product List | Glossary On
Versions: 1 2 3 4 5 6 7 8 9 10 11 12 13 14 15 16 17 18 19 20 21 22 23 24 25 26 27 28 29 30 31 32 33
922
FTUS43 KBIS 250347 AAC
TAFISN
TAF AMD
KISN 250347Z 2504/2524 00000KT P6SM SCT025 BKN090
     FM250600 21004KT P6SM VCSH BKN050
      TEMPO 2506/2509 3SM -SN BKN025
     FM251000 30004KT P6SM VCSH BKN035
     FM251300 34005KT P6SM BKN015
     FM252100 24007KT 2SM -SN OVC008=

USA.gov is the U.S. government's official web portal to all federal, state and local government web resources and services.